Time;durP1;ratioP1;P1;durP2;ratioP2;P2;SDS_P1;SDS_P2;PMS_P1;PMS_P2;Temp;Humidity;BMP_temperature;BMP_pressure;BME280_temperature;BME280_humidity;BME280_pressure;Samples;Min_cycle;Max_cycle;Signal;HPM_P1;HPM_P2
2021/03/24 01:52:29;;;;;;;28.13;14.30;;;1.50;99.90;;;;;;5055453;28;20071;-84
2021/03/24 01:54:55;;;;;;;26.20;13.87;;;1.60;99.90;;;;;;5043764;28;20022;-85
2021/03/24 01:57:25;;;;;;;26.20;14.83;;;1.60;99.90;;;;;;5044943;28;20088;-85
2021/03/24 01:59:53;;;;;;;25.53;14.30;;;1.50;99.90;;;;;;5044928;28;20053;-85
2021/03/24 02:02:37;;;;;;;27.40;13.93;;;1.50;99.90;;;;;;5047650;28;20396;-85
2021/03/24 02:05:06;;;;;;;29.37;15.53;;;1.50;99.90;;;;;;5049605;28;20017;-84
2021/03/24 02:07:49;;;;;;;25.13;14.43;;;1.50;99.90;;;;;;5054026;28;20021;-85
2021/03/24 02:10:40;;;;;;;25.07;14.33;;;1.50;99.90;;;;;;5047387;28;20041;-85
2021/03/24 02:13:16;;;;;;;26.33;14.67;;;1.50;99.90;;;;;;5051256;28;20028;-84
2021/03/24 02:15:52;;;;;;;28.93;14.60;;;1.50;99.90;;;;;;5049086;28;20485;-85
2021/03/24 02:18:21;;;;;;;28.33;13.93;;;1.40;99.90;;;;;;5052803;28;20025;-85
2021/03/24 02:20:51;;;;;;;26.93;15.77;;;1.40;99.90;;;;;;5049744;28;20017;-86
2021/03/24 02:23:16;;;;;;;29.43;14.77;;;1.40;99.90;;;;;;5041143;28;20049;-85
2021/03/24 02:25:50;;;;;;;28.00;14.03;;;1.40;99.90;;;;;;5050745;28;20063;-85
2021/03/24 02:28:18;;;;;;;31.43;15.30;;;1.40;99.90;;;;;;5047974;28;20021;-85
2021/03/24 02:30:47;;;;;;;25.30;13.77;;;1.40;99.90;;;;;;5046332;28;20022;-85
2021/03/24 02:33:20;;;;;;;25.57;13.83;;;1.40;99.90;;;;;;5046258;28;20094;-84
2021/03/24 02:35:50;;;;;;;26.33;14.30;;;1.40;99.90;;;;;;5039697;28;20032;-85
2021/03/24 02:38:18;;;;;;;28.13;14.77;;;1.30;99.90;;;;;;5052493;28;20052;-85
2021/03/24 02:40:46;;;;;;;27.67;14.70;;;1.30;99.90;;;;;;5052844;28;20025;-85
2021/03/24 02:43:13;;;;;;;25.67;14.27;;;1.30;99.90;;;;;;5043297;28;20026;-86
2021/03/24 02:45:42;;;;;;;28.13;13.53;;;1.30;99.90;;;;;;5049862;28;20036;-85
2021/03/24 02:48:12;;;;;;;23.93;13.93;;;1.30;99.90;;;;;;5047851;28;20017;-85
2021/03/24 02:50:40;;;;;;;26.50;13.93;;;1.20;99.90;;;;;;5042670;28;20052;-85
2021/03/24 02:53:06;;;;;;;24.73;13.07;;;1.20;99.90;;;;;;5050727;28;20401;-85
2021/03/24 02:55:34;;;;;;;31.70;14.90;;;1.20;99.90;;;;;;5042219;28;20028;-85
2021/03/24 02:58:00;;;;;;;28.03;14.10;;;1.20;99.90;;;;;;5042992;28;20550;-84
2021/03/24 03:00:27;;;;;;;25.97;14.30;;;1.20;99.90;;;;;;5054075;28;20096;-85
2021/03/24 03:02:56;;;;;;;26.70;14.30;;;1.20;99.90;;;;;;5051315;28;20025;-85
2021/03/24 03:05:27;;;;;;;28.50;13.93;;;1.20;99.90;;;;;;5042085;28;20025;-85
2021/03/24 03:08:05;;;;;;;25.17;15.50;;;1.20;99.90;;;;;;5049294;28;20029;-84
2021/03/24 03:10:34;;;;;;;24.57;14.03;;;1.10;99.90;;;;;;5041961;28;20060;-84
2021/03/24 03:13:03;;;;;;;25.87;14.73;;;1.10;99.90;;;;;;5049711;28;20013;-85
2021/03/24 03:15:44;;;;;;;27.53;15.30;;;1.10;99.90;;;;;;5041366;28;20138;-85
2021/03/24 03:18:23;;;;;;;26.43;14.43;;;1.00;99.90;;;;;;5051391;28;20137;-85
2021/03/24 03:20:54;;;;;;;28.47;14.63;;;1.00;99.90;;;;;;5041726;28;20092;-85
2021/03/24 03:23:23;;;;;;;27.10;15.23;;;1.00;99.90;;;;;;5053516;28;20501;-86
2021/03/24 03:26:08;;;;;;;26.47;15.33;;;0.90;99.90;;;;;;5049744;28;20039;-85
2021/03/24 03:28:37;;;;;;;31.53;15.20;;;0.80;99.90;;;;;;5043628;28;20017;-85
2021/03/24 03:31:07;;;;;;;31.47;16.50;;;0.80;99.90;;;;;;5047250;28;20025;-86
2021/03/24 03:33:36;;;;;;;27.97;14.90;;;0.80;99.90;;;;;;5046151;28;20022;-84
2021/03/24 03:36:02;;;;;;;27.30;16.00;;;0.80;99.90;;;;;;5048742;28;20017;-86
2021/03/24 03:38:30;;;;;;;30.93;15.80;;;0.90;99.90;;;;;;5045315;28;20116;-85
2021/03/24 03:40:58;;;;;;;33.30;15.60;;;0.80;99.90;;;;;;5042434;28;20017;-85
2021/03/24 03:43:24;;;;;;;25.53;14.70;;;0.90;99.90;;;;;;5048987;28;20075;-85
2021/03/24 03:45:52;;;;;;;26.63;14.83;;;0.90;99.90;;;;;;5053634;28;20046;-84
2021/03/24 03:48:20;;;;;;;28.50;14.57;;;0.90;99.90;;;;;;5052394;28;20022;-83
2021/03/24 03:50:53;;;;;;;26.73;14.63;;;0.80;99.90;;;;;;5036909;28;20029;-83
2021/03/24 03:53:24;;;;;;;24.90;14.47;;;0.90;99.90;;;;;;5042941;28;20016;-83
2021/03/24 03:55:53;;;;;;;25.43;14.70;;;0.80;99.90;;;;;;5037485;28;20028;-83
2021/03/24 03:58:25;;;;;;;24.33;13.83;;;0.80;99.90;;;;;;5045872;28;20041;-83
2021/03/24 04:01:16;;;;;;;25.80;14.13;;;0.80;99.90;;;;;;5045744;28;20025;-83
2021/03/24 04:03:53;;;;;;;29.13;14.60;;;0.80;99.90;;;;;;5072745;28;20029;-83
2021/03/24 04:06:43;;;;;;;25.10;14.20;;;0.80;99.90;;;;;;5045144;28;20017;-83
2021/03/24 04:09:10;;;;;;;24.00;13.93;;;0.80;99.90;;;;;;5046686;28;20030;-83
2021/03/24 04:11:44;;;;;;;26.23;14.17;;;0.80;99.90;;;;;;5049718;28;20129;-85
2021/03/24 04:14:15;;;;;;;26.40;14.20;;;0.80;99.90;;;;;;5049553;28;20032;-83
2021/03/24 04:16:44;;;;;;;23.93;13.80;;;0.70;99.90;;;;;;5048256;28;20041;-83
2021/03/24 04:19:11;;;;;;;27.53;13.80;;;0.70;99.90;;;;;;5050049;28;20025;-84
2021/03/24 04:21:39;;;;;;;27.63;14.10;;;0.70;99.90;;;;;;5052231;28;20096;-84
2021/03/24 04:24:12;;;;;;;27.00;15.07;;;0.70;99.90;;;;;;5048905;28;20106;-85
2021/03/24 04:26:42;;;;;;;25.48;14.32;;;0.70;99.90;;;;;;5042266;28;20483;-84
2021/03/24 04:29:31;;;;;;;30.83;14.67;;;0.60;99.90;;;;;;5042423;28;20097;-84
2021/03/24 04:31:59;;;;;;;25.93;13.90;;;0.60;99.90;;;;;;5045970;28;20021;-84
2021/03/24 04:34:26;;;;;;;25.33;14.47;;;0.60;99.90;;;;;;5047962;28;20108;-84
2021/03/24 04:37:07;;;;;;;29.53;14.80;;;0.60;99.90;;;;;;5051807;28;20041;-85
2021/03/24 04:39:51;;;;;;;27.83;14.67;;;0.60;99.90;;;;;;5052281;28;20021;-84
2021/03/24 04:42:21;;;;;;;25.90;13.57;;;0.50;99.90;;;;;;5051128;28;20029;-84
2021/03/24 04:44:53;;;;;;;26.83;13.80;;;0.60;99.90;;;;;;5040948;28;20025;-84
2021/03/24 04:47:28;;;;;;;27.20;13.43;;;0.50;99.90;;;;;;5054301;28;20091;-84
2021/03/24 04:50:01;;;;;;;27.43;14.00;;;0.50;99.90;;;;;;5042683;28;20397;-84
2021/03/24 04:52:30;;;;;;;27.33;14.30;;;0.50;99.90;;;;;;5047057;28;20568;-84
2021/03/24 04:55:02;;;;;;;27.03;13.70;;;0.50;99.90;;;;;;5055112;28;20041;-84
2021/03/24 04:57:28;;;;;;;21.83;11.10;;;0.50;99.90;;;;;;5041157;28;20032;-85
2021/03/24 05:00:04;;;;;;;24.97;14.33;;;0.50;99.90;;;;;;5050062;28;20040;-85
2021/03/24 05:02:33;;;;;;;28.73;14.03;;;0.50;99.90;;;;;;5045590;28;20508;-83
2021/03/24 05:05:04;;;;;;;23.67;13.07;;;0.50;99.90;;;;;;5041097;28;20033;-84
2021/03/24 05:07:41;;;;;;;27.40;13.95;;;0.50;99.90;;;;;;5045776;28;20017;-84
2021/03/24 05:10:12;;;;;;;24.60;13.70;;;0.50;99.90;;;;;;5053438;28;20036;-84
2021/03/24 05:12:42;;;;;;;27.70;14.40;;;0.40;99.90;;;;;;5048534;28;20025;-84
2021/03/24 05:15:16;;;;;;;27.60;13.97;;;0.40;99.90;;;;;;5041923;28;20108;-84
2021/03/24 05:17:43;;;;;;;25.73;13.37;;;0.40;99.90;;;;;;5044642;28;20076;-84
2021/03/24 05:20:17;;;;;;;26.73;13.90;;;0.40;99.90;;;;;;5045060;28;20092;-84
2021/03/24 05:22:44;;;;;;;26.23;14.30;;;0.40;99.90;;;;;;5053635;28;20056;-83
2021/03/24 05:25:33;;;;;;;24.17;13.43;;;0.40;99.90;;;;;;5059294;28;20025;-84
2021/03/24 05:28:04;;;;;;;24.10;13.73;;;0.40;99.90;;;;;;5050635;28;20080;-85
2021/03/24 05:30:33;;;;;;;26.47;14.83;;;0.30;99.90;;;;;;5053049;28;20029;-84
2021/03/24 05:33:04;;;;;;;24.43;13.13;;;0.30;99.90;;;;;;5059283;28;20023;-83
2021/03/24 05:35:58;;;;;;;23.50;13.93;;;0.30;99.90;;;;;;5047062;28;20033;-84
2021/03/24 05:38:30;;;;;;;24.20;13.80;;;0.30;99.90;;;;;;5050518;28;20481;-85
2021/03/24 05:40:59;;;;;;;;;;;0.30;99.90;;;;;;5053751;28;20031;-84
2021/03/24 05:43:54;;;;;;;23.27;13.17;;;0.30;99.90;;;;;;5053470;28;19969;-84
2021/03/24 05:46:31;;;;;;;26.00;13.57;;;0.30;99.90;;;;;;5054300;28;20029;-84
2021/03/24 05:49:30;;;;;;;25.63;13.50;;;0.30;99.90;;;;;;5051516;28;20021;-84
2021/03/24 05:52:24;;;;;;;22.83;11.83;;;0.30;99.90;;;;;;5046721;28;20112;-84
2021/03/24 05:55:12;;;;;;;27.90;14.20;;;0.30;99.90;;;;;;5049581;28;20017;-84
2021/03/24 05:58:10;;;;;;;26.23;15.20;;;0.30;99.90;;;;;;5048578;28;20476;-84
2021/03/24 06:01:03;;;;;;;28.53;14.80;;;0.40;99.90;;;;;;5048792;28;20021;-83
2021/03/24 06:03:29;;;;;;;29.37;14.50;;;0.50;99.90;;;;;;5047160;28;20107;-83
2021/03/24 06:06:13;;;;;;;25.63;14.40;;;0.50;99.90;;;;;;5052058;28;20397;-83
2021/03/24 06:09:02;;;;;;;29.77;15.33;;;0.60;99.90;;;;;;5048244;28;20057;-84
2021/03/24 06:11:54;;;;;;;28.33;15.30;;;0.60;99.90;;;;;;5046310;28;20017;-84
2021/03/24 06:14:34;;;;;;;25.70;13.83;;;0.70;99.90;;;;;;5045569;28;20021;-85
2021/03/24 06:17:39;;;;;;;28.73;14.33;;;0.80;99.90;;;;;;5052915;28;20033;-83
2021/03/24 06:20:35;;;;;;;27.60;14.33;;;0.90;99.90;;;;;;5007966;28;20029;-83
2021/03/24 06:23:36;;;;;;;29.07;14.87;;;0.90;99.90;;;;;;5011818;28;20057;-84
2021/03/24 06:26:08;;;;;;;30.67;14.73;;;0.80;99.90;;;;;;5045889;28;20151;-84
2021/03/24 06:29:01;;;;;;;27.37;14.70;;;0.70;99.90;;;;;;5048856;28;20017;-84
2021/03/24 06:31:36;;;;;;;27.48;14.98;;;0.80;99.90;;;;;;5051177;28;20763;-84
2021/03/24 06:34:43;;;;;;;27.43;15.20;;;0.90;99.90;;;;;;5052266;28;20029;-84
2021/03/24 06:37:31;;;;;;;27.87;16.17;;;1.10;99.90;;;;;;5050492;28;20117;-85
2021/03/24 06:40:19;;;;;;;29.57;15.07;;;1.20;99.90;;;;;;5053309;28;20013;-84
2021/03/24 06:42:50;;;;;;;28.80;15.07;;;1.20;99.90;;;;;;5048525;28;20068;-84
2021/03/24 06:45:42;;;;;;;27.33;14.10;;;1.40;99.90;;;;;;5047115;28;20063;-84
2021/03/24 06:48:15;;;;;;;28.85;15.70;;;1.60;99.90;;;;;;5048376;28;20029;-84
2021/03/24 06:51:10;;;;;;;27.17;15.50;;;1.70;99.90;;;;;;5049629;28;20029;-83
2021/03/24 06:54:04;;;;;;;27.57;15.37;;;1.80;99.90;;;;;;5039880;28;20021;-84
2021/03/24 06:56:49;;;;;;;25.80;14.73;;;1.80;99.90;;;;;;5045090;28;20489;-83
2021/03/24 06:59:27;;;;;;;26.63;14.70;;;2.00;99.90;;;;;;5048397;28;20126;-83
2021/03/24 07:02:01;;;;;;;29.47;14.17;;;2.10;99.90;;;;;;5043482;28;20029;-84
2021/03/24 07:04:55;;;;;;;26.47;14.70;;;2.10;99.90;;;;;;5039402;28;20038;-83
2021/03/24 07:07:37;;;;;;;24.73;14.53;;;2.20;99.90;;;;;;5048243;28;20024;-85
2021/03/24 07:10:42;;;;;;;26.30;14.83;;;2.10;99.90;;;;;;5046668;28;20014;-84
2021/03/24 07:13:27;;;;;;;28.67;15.17;;;2.20;99.90;;;;;;5049124;28;20026;-84
2021/03/24 07:16:17;;;;;;;27.13;14.50;;;2.40;99.90;;;;;;5043072;28;20097;-84
2021/03/24 07:18:58;;;;;;;25.43;14.30;;;2.40;99.90;;;;;;5050417;28;20037;-84
2021/03/24 07:21:42;;;;;;;23.30;14.23;;;2.40;99.90;;;;;;5044863;28;20049;-85
2021/03/24 07:24:46;;;;;;;27.40;15.20;;;2.50;99.90;;;;;;5049511;28;20041;-84
2021/03/24 07:27:39;;;;;;;26.27;14.07;;;2.60;99.90;;;;;;5038796;28;20064;-84
2021/03/24 07:30:17;;;;;;;23.73;13.73;;;2.60;99.90;;;;;;5049066;28;20539;-85
2021/03/24 07:32:58;;;;;;;22.40;12.97;;;2.60;99.90;;;;;;5043088;28;20051;-84
2021/03/24 07:35:37;;;;;;;28.10;13.70;;;2.80;99.90;;;;;;5052973;28;20037;-84
2021/03/24 07:38:26;;;;;;;25.50;14.10;;;2.80;99.90;;;;;;5041967;28;20032;-84
2021/03/24 07:41:10;;;;;;;25.80;13.83;;;2.80;99.90;;;;;;5040033;28;20024;-84
2021/03/24 07:43:57;;;;;;;26.13;14.70;;;2.70;99.90;;;;;;5042546;28;20025;-86
2021/03/24 07:46:42;;;;;;;35.00;15.60;;;2.70;99.90;;;;;;5047820;28;20032;-84
2021/03/24 07:49:37;;;;;;;24.50;14.20;;;2.60;99.90;;;;;;5043216;28;20020;-85
2021/03/24 07:52:15;;;;;;;28.47;15.90;;;2.80;99.90;;;;;;5042415;28;20044;-84
2021/03/24 07:55:07;;;;;;;27.87;15.90;;;2.80;99.90;;;;;;5047479;28;20092;-85
2021/03/24 07:58:02;;;;;;;21.33;11.45;;;2.90;99.90;;;;;;5046735;28;20017;-85
2021/03/24 08:00:35;;;;;;;23.93;14.20;;;3.00;99.90;;;;;;5018366;28;20041;-85
2021/03/24 08:03:37;;;;;;;27.63;15.30;;;3.10;99.90;;;;;;5043903;28;20028;-84
2021/03/24 08:06:08;;;;;;;25.37;15.00;;;3.30;99.90;;;;;;5039361;28;20037;-85
2021/03/24 08:08:46;;;;;;;25.90;15.00;;;3.60;99.90;;;;;;5041292;28;20096;-85
2021/03/24 08:11:25;;;;;;;25.83;13.83;;;3.80;99.90;;;;;;5045648;28;20017;-85
2021/03/24 08:14:25;;;;;;;30.67;15.47;;;4.00;99.90;;;;;;5044760;28;20404;-85
2021/03/24 08:17:09;;;;;;;24.57;14.43;;;4.30;99.90;;;;;;5034330;28;20023;-86
2021/03/24 08:20:04;;;;;;;31.40;15.40;;;4.60;99.90;;;;;;5040709;28;20026;-86
2021/03/24 08:22:36;;;;;;;27.30;14.23;;;4.70;99.90;;;;;;5044777;28;20025;-85
2021/03/24 08:25:26;;;;;;;26.15;14.15;;;4.80;99.90;;;;;;5049314;28;20081;-86
2021/03/24 08:28:06;;;;;;;28.67;14.20;;;4.90;99.90;;;;;;5042447;28;20117;-85
2021/03/24 08:31:04;;;;;;;24.80;13.67;;;4.90;99.90;;;;;;5052672;28;20031;-84
2021/03/24 08:33:53;;;;;;;24.10;14.53;;;5.10;99.90;;;;;;5041009;28;20013;-83
2021/03/24 08:37:00;;;;;;;25.23;14.90;;;5.30;99.90;;;;;;5043515;28;20022;-86
2021/03/24 08:40:21;;;;;;;30.33;14.67;;;5.50;99.90;;;;;;5039566;28;20092;-86
2021/03/24 08:43:14;;;;;;;24.57;13.67;;;5.50;99.90;;;;;;5028330;28;20030;-86
2021/03/24 08:46:05;;;;;;;;;;;5.60;99.90;;;;;;5023439;28;20049;-86
2021/03/24 08:48:57;;;;;;;27.67;14.63;;;5.60;99.90;;;;;;5021379;28;19927;-87
2021/03/24 08:51:47;;;;;;;26.38;13.95;;;5.80;99.90;;;;;;5040691;28;20022;-86
2021/03/24 08:54:35;;;;;;;24.67;14.57;;;6.00;99.90;;;;;;5041444;28;20120;-87
2021/03/24 08:57:18;;;;;;;28.20;14.33;;;6.30;99.90;;;;;;5040079;28;20032;-86
2021/03/24 09:00:10;;;;;;;33.53;15.47;;;6.50;99.90;;;;;;5049149;28;20047;-85
2021/03/24 09:02:55;;;;;;;20.65;11.48;;;6.70;99.90;;;;;;5044539;28;20018;-86
2021/03/24 09:05:29;;;;;;;23.13;13.70;;;6.90;99.90;;;;;;5044117;28;20385;-86
2021/03/24 09:07:58;;;;;;;27.13;13.90;;;6.90;99.90;;;;;;5043147;28;20037;-86
2021/03/24 09:10:45;;;;;;;24.57;13.90;;;7.10;99.90;;;;;;5049807;28;20692;-86
2021/03/24 09:13:43;;;;;;;26.10;14.27;;;7.20;99.90;;;;;;5043505;28;20063;-84
2021/03/24 09:16:46;;;;;;;26.00;14.63;;;7.30;99.90;;;;;;5030935;28;20030;-86
2021/03/24 09:19:37;;;;;;;25.00;13.70;;;7.40;99.90;;;;;;5049679;28;20051;-85
2021/03/24 09:22:40;;;;;;;28.57;14.33;;;7.50;99.90;;;;;;5045288;28;20027;-85
2021/03/24 09:25:12;;;;;;;20.38;12.43;;;7.50;99.90;;;;;;5049722;28;20021;-85
2021/03/24 09:28:02;;;;;;;23.35;12.82;;;7.70;99.90;;;;;;5041158;28;20140;-85
2021/03/24 09:30:31;;;;;;;22.90;13.13;;;7.60;99.90;;;;;;5041728;28;20053;-86
2021/03/24 09:33:24;;;;;;;23.37;13.00;;;7.50;99.90;;;;;;5042873;28;20028;-86
2021/03/24 09:36:17;;;;;;;22.50;12.87;;;7.50;99.90;;;;;;5044526;28;20094;-85
2021/03/24 09:38:45;;;;;;;27.57;15.07;;;7.60;99.90;;;;;;5045841;28;20108;-85
2021/03/24 09:41:17;;;;;;;26.73;14.33;;;7.70;99.90;;;;;;5047787;28;20020;-86
2021/03/24 09:43:47;;;;;;;26.30;13.70;;;7.70;99.90;;;;;;5045545;28;20025;-86
2021/03/24 09:46:34;;;;;;;23.93;14.10;;;7.70;99.90;;;;;;5046624;28;20037;-86
2021/03/24 09:49:05;;;;;;;24.70;14.00;;;7.80;99.90;;;;;;5048332;28;20025;-85
2021/03/24 09:51:44;;;;;;;25.03;14.17;;;8.10;99.90;;;;;;5052111;28;20063;-86
2021/03/24 09:54:21;;;;;;;27.03;14.07;;;8.10;99.90;;;;;;5048182;28;20061;-87
2021/03/24 09:57:08;;;;;;;29.33;14.70;;;8.20;99.90;;;;;;5046277;28;20037;-86
2021/03/24 09:59:54;;;;;;;24.37;14.13;;;8.30;99.90;;;;;;5052278;28;20120;-85
2021/03/24 10:02:30;;;;;;;25.17;13.43;;;8.50;99.90;;;;;;5051355;28;20053;-86
2021/03/24 10:05:05;;;;;;;23.87;13.73;;;8.40;99.90;;;;;;5058830;28;20040;-85
2021/03/24 10:07:32;;;;;;;24.50;13.63;;;8.60;99.90;;;;;;5053747;28;20029;-86
2021/03/24 10:10:19;;;;;;;22.50;12.65;;;8.80;99.90;;;;;;5047271;28;20095;-86
2021/03/24 10:13:03;;;;;;;23.33;13.23;;;9.00;99.90;;;;;;5049387;28;20048;-86
2021/03/24 10:15:44;;;;;;;23.38;13.43;;;9.10;99.90;;;;;;5046018;28;20056;-87
2021/03/24 10:18:28;;;;;;;24.83;14.30;;;9.20;99.90;;;;;;5043817;28;20055;-87
2021/03/24 10:21:08;;;;;;;28.27;14.57;;;9.10;99.90;;;;;;5045808;28;20036;-86
2021/03/24 10:24:00;;;;;;;23.77;13.75;;;9.20;99.90;;;;;;5047274;28;20024;-86
2021/03/24 10:26:25;;;;;;;23.80;13.48;;;9.30;99.90;;;;;;5044849;28;20056;-86
2021/03/24 10:29:09;;;;;;;22.60;14.02;;;9.40;99.90;;;;;;5045892;28;20105;-86
2021/03/24 10:31:41;;;;;;;22.92;12.57;;;9.60;99.90;;;;;;5050649;28;20020;-86
2021/03/24 10:34:25;;;;;;;23.55;12.45;;;9.70;99.90;;;;;;5062179;28;20013;-84
2021/03/24 10:36:56;;;;;;;18.05;10.93;;;9.60;99.90;;;;;;5049015;28;20108;-86
2021/03/24 10:39:34;;;;;;;20.20;11.65;;;9.50;99.90;;;;;;5045253;28;20021;-86
2021/03/24 10:42:27;;;;;;;19.90;12.00;;;9.70;99.90;;;;;;5040112;28;20036;-86
2021/03/24 10:45:08;;;;;;;26.13;12.05;;;9.90;99.90;;;;;;5046668;28;20127;-87
2021/03/24 10:47:42;;;;;;;21.27;12.57;;;10.10;99.90;;;;;;5047698;28;20700;-86
2021/03/24 10:50:10;;;;;;;18.98;11.68;;;10.00;99.90;;;;;;5042886;28;20059;-85
2021/03/24 10:52:59;;;;;;;23.67;12.07;;;10.20;99.90;;;;;;5038145;28;20025;-87
2021/03/24 10:55:28;;;;;;;20.23;10.32;;;10.50;97.90;;;;;;5043722;28;20453;-87
2021/03/24 10:58:12;;;;;;;20.48;10.45;;;10.60;96.70;;;;;;5042804;28;20028;-85
2021/03/24 11:00:43;;;;;;;18.85;9.50;;;10.60;95.30;;;;;;5038211;28;20107;-86
2021/03/24 11:03:21;;;;;;;17.42;9.30;;;10.80;93.60;;;;;;5042242;28;20386;-87
2021/03/24 11:06:03;;;;;;;17.33;9.38;;;11.00;92.40;;;;;;5039549;28;20028;-86
2021/03/24 11:08:35;;;;;;;;;;;11.00;90.20;;;;;;5042753;28;20032;-88
2021/03/24 11:11:38;;;;;;;19.10;10.95;;;10.90;91.60;;;;;;5037072;28;19935;-85
2021/03/24 11:14:39;;;;;;;18.55;9.45;;;11.30;91.00;;;;;;5041291;28;20029;-88
2021/03/24 11:17:25;;;;;;;17.02;9.57;;;11.60;87.50;;;;;;5013327;28;20036;-86
2021/03/24 11:20:01;;;;;;;16.27;9.23;;;11.60;87.60;;;;;;5040577;28;20021;-87
2021/03/24 11:22:37;;;;;;;17.85;10.43;;;11.80;88.90;;;;;;5038469;28;20477;-85
2021/03/24 11:25:28;;;;;;;16.85;9.10;;;11.70;87.30;;;;;;5034776;28;20448;-83
2021/03/24 12:32:37;;;;;;;20.75;12.30;;;14.60;66.60;;;;;;5065909;28;20052;-94
2021/03/24 12:35:18;;;;;;;20.38;11.57;;;14.60;65.50;;;;;;5060815;28;20061;-93
2021/03/24 12:37:47;;;;;;;17.92;10.93;;;14.70;64.50;;;;;;5059899;28;20028;-94
2021/03/24 12:40:30;;;;;;;22.45;12.25;;;14.80;66.00;;;;;;5086478;22;20049;-92
2021/03/24 12:43:16;;;;;;;20.33;10.63;;;15.00;65.10;;;;;;5036074;28;20076;-91
2021/03/24 12:45:51;;;;;;;20.65;11.27;;;14.80;64.90;;;;;;5037586;28;20037;-92
2021/03/24 12:48:35;;;;;;;18.73;11.40;;;15.00;63.80;;;;;;5036221;28;20055;-90
2021/03/24 12:51:43;;;;;;;20.40;11.52;;;15.20;63.60;;;;;;5039353;28;20318;-91
2021/03/24 12:54:22;;;;;;;18.80;11.73;;;15.30;65.00;;;;;;5045015;28;20068;-90
2021/03/24 12:57:18;;;;;;;18.17;10.77;;;15.30;62.90;;;;;;5032683;28;20080;-91
2021/03/24 13:00:24;;;;;;;20.38;10.95;;;15.40;63.30;;;;;;5034359;28;20067;-92
2021/03/24 13:03:28;;;;;;;19.00;11.57;;;15.70;62.50;;;;;;5037006;28;20274;-92
2021/03/24 13:06:28;;;;;;;18.52;11.55;;;15.80;60.30;;;;;;5041387;28;20383;-92
2021/03/24 13:09:31;;;;;;;23.63;11.77;;;15.60;61.30;;;;;;5046252;28;20018;-91
2021/03/24 13:12:23;;;;;;;;;;;15.70;60.20;;;;;;5042517;28;20032;-93
2021/03/24 13:15:16;;;;;;;18.20;11.73;;;15.60;61.90;;;;;;5037167;28;19909;-93
2021/03/24 13:18:06;;;;;;;18.10;11.75;;;15.70;60.00;;;;;;5036385;28;20037;-94
2021/03/24 13:20:56;;;;;;;24.67;12.27;;;15.90;60.80;;;;;;5036328;28;20038;-92
2021/03/24 13:23:36;;;;;;;20.60;11.52;;;16.10;59.60;;;;;;5037585;28;20037;-91
2021/03/24 13:26:26;;;;;;;19.75;12.38;;;16.20;60.00;;;;;;5044827;28;20038;-93
2021/03/24 13:29:23;;;;;;;22.38;11.45;;;16.30;60.90;;;;;;5042787;28;20036;-92
2021/03/24 13:32:45;;;;;;;18.35;11.48;;;16.50;58.70;;;;;;5053824;28;20029;-92
2021/03/24 14:04:14;;;;;;;18.05;11.73;;;17.30;56.10;;;;;;1005988;22;20291;-92
2021/03/24 14:07:02;;;;;;;18.00;11.45;;;17.70;55.60;;;;;;5041541;28;20032;-93
2021/03/24 14:09:33;;;;;;;19.20;12.15;;;17.90;55.40;;;;;;5045578;28;20048;-92
2021/03/24 14:12:29;;;;;;;21.33;11.48;;;18.20;54.60;;;;;;5035001;28;20052;-90
2021/03/24 14:15:15;;;;;;;20.83;11.07;;;18.40;53.10;;;;;;5040668;28;20460;-93
2021/03/24 14:18:22;;;;;;;25.08;11.65;;;18.70;52.40;;;;;;5053781;28;20037;-94
2021/03/24 14:21:31;;;;;;;20.75;12.68;;;18.80;51.50;;;;;;5063827;28;20028;-92
2021/03/24 14:24:06;;;;;;;16.83;11.90;;;18.60;51.10;;;;;;5025200;28;20371;-90
2021/03/24 14:27:23;;;;;;;19.10;11.98;;;18.60;52.50;;;;;;5037422;28;20029;-92
2021/03/24 15:58:13;;;;;;;17.20;10.23;;;19.60;47.70;;;;;;2445617;22;20044;-91
2021/03/24 16:00:47;;;;;;;18.88;11.43;;;19.10;48.40;;;;;;5066599;28;20009;-92
2021/03/24 16:03:56;;;;;;;19.85;11.55;;;18.60;49.40;;;;;;5102264;22;20121;-91
2021/03/24 16:14:42;;;;;;;19.65;11.10;;;15.70;55.70;;;;;;3204266;26;20047;-92
2021/03/24 16:17:47;;;;;;;20.30;11.13;;;15.30;56.80;;;;;;5065712;28;20025;-92
2021/03/24 16:20:51;;;;;;;19.00;11.25;;;14.90;58.10;;;;;;5061837;28;20057;-91
2021/03/24 16:23:56;;;;;;;17.77;10.68;;;14.70;58.40;;;;;;5038992;28;20048;-93
2021/03/24 17:13:41;;;;;;;;;;;;;;;;;;;;;
2021/03/24 17:16:34;;;;;;;23.00;12.52;;;12.70;67.60;;;;;;5048813;28;20097;-92
2021/03/24 17:19:24;;;;;;;22.73;11.98;;;12.60;67.70;;;;;;5051341;28;20025;-90
2021/03/24 17:21:53;;;;;;;22.80;12.50;;;12.50;68.80;;;;;;5047570;28;20490;-91
2021/03/24 17:24:31;;;;;;;18.92;10.80;;;12.40;69.20;;;;;;5065283;28;20060;-91
2021/03/24 17:27:37;;;;;;;20.05;10.85;;;12.30;69.50;;;;;;5054556;28;20051;-91
2021/03/24 17:30:23;;;;;;;;;;;;;;;;;;;;;
2021/03/24 17:33:01;;;;;;;20.35;10.73;;;12.10;71.60;;;;;;5057212;28;20105;-90
2021/03/24 17:35:55;;;;;;;19.58;11.18;;;12.00;71.70;;;;;;5059720;28;20069;-92
2021/03/24 17:38:35;;;;;;;21.60;10.95;;;12.00;72.40;;;;;;5057125;28;20095;-91
2021/03/24 17:41:14;;;;;;;24.02;11.48;;;11.90;72.60;;;;;;5054925;28;20037;-91
2021/03/24 17:44:09;;;;;;;21.90;12.00;;;11.80;73.50;;;;;;5049576;28;20060;-91
2021/03/24 17:46:58;;;;;;;22.70;12.43;;;11.80;74.40;;;;;;5038111;28;20037;-93
2021/03/24 17:49:41;;;;;;;25.17;12.30;;;11.80;75.10;;;;;;5067436;28;20039;-91
2021/03/24 17:52:41;;;;;;;24.20;12.05;;;11.70;74.90;;;;;;5059882;28;20024;-92
2021/03/24 17:55:45;;;;;;;21.85;12.48;;;11.60;75.40;;;;;;5045851;28;20037;-93
2021/03/24 17:58:49;;;;;;;22.98;11.43;;;11.50;75.70;;;;;;5056699;28;20096;-93
2021/03/24 18:01:20;;;;;;;20.55;11.52;;;11.40;76.60;;;;;;5063532;28;20073;-94
2021/03/24 18:04:14;;;;;;;21.20;11.63;;;11.30;78.40;;;;;;5048814;28;20379;-91
2021/03/24 18:06:55;;;;;;;18.48;11.43;;;11.20;79.60;;;;;;5049624;28;20298;-92
2021/03/24 18:09:33;;;;;;;23.83;11.75;;;11.10;81.10;;;;;;5074421;28;20039;-93
2021/03/24 18:12:26;;;;;;;23.23;11.68;;;11.00;82.10;;;;;;5057190;28;20041;-93
2021/03/24 18:15:22;;;;;;;25.58;11.48;;;10.90;83.30;;;;;;5039713;28;20033;-92
2021/03/24 18:18:30;;;;;;;23.48;10.95;;;10.90;83.70;;;;;;5050507;28;20045;-92
2021/03/24 18:21:05;;;;;;;23.65;11.25;;;10.70;86.10;;;;;;5044925;28;20097;-91
2021/03/24 18:23:35;;;;;;;27.17;12.13;;;10.60;87.30;;;;;;5071171;22;20048;-85
2021/03/24 18:26:18;;;;;;;26.17;12.77;;;10.60;87.50;;;;;;5050214;28;20025;-84
2021/03/24 18:28:45;;;;;;;;;;;10.60;89.40;;;;;;5036784;28;20045;-84
2021/03/24 18:31:30;;;;;;;21.80;11.73;;;10.60;88.40;;;;;;5031601;28;19916;-85
2021/03/24 18:34:20;;;;;;;24.08;11.50;;;10.60;88.30;;;;;;5032366;28;20033;-84
2021/03/24 18:37:03;;;;;;;20.23;11.30;;;10.50;88.40;;;;;;5023319;28;20482;-86
2021/03/24 18:39:39;;;;;;;20.80;12.00;;;10.40;89.90;;;;;;5030989;28;20120;-81
2021/03/24 18:42:25;;;;;;;20.95;11.90;;;10.30;90.20;;;;;;5029771;28;20032;-83
2021/03/24 18:44:55;;;;;;;23.42;13.25;;;10.30;90.70;;;;;;5030762;28;20089;-81
2021/03/24 18:47:34;;;;;;;22.48;12.70;;;10.20;91.30;;;;;;5023288;28;20039;-82
2021/03/24 18:50:03;;;;;;;25.45;14.98;;;10.10;91.80;;;;;;5031881;28;20116;-86
2021/03/24 18:52:39;;;;;;;28.75;15.82;;;10.00;92.00;;;;;;5032187;28;20021;-86
2021/03/24 18:55:34;;;;;;;27.70;14.73;;;10.00;92.70;;;;;;5021736;28;20429;-84
2021/03/24 18:58:20;;;;;;;25.00;12.82;;;9.90;93.90;;;;;;5029332;28;20308;-83
2021/03/24 19:00:51;;;;;;;23.08;12.65;;;9.80;95.40;;;;;;5031195;28;20025;-83
2021/03/24 19:03:34;;;;;;;23.98;12.32;;;9.80;96.40;;;;;;5041416;28;20022;-86
2021/03/24 19:06:15;;;;;;;23.02;12.18;;;9.70;97.20;;;;;;5028865;28;20021;-83
2021/03/24 19:08:42;;;;;;;26.42;12.73;;;9.60;97.70;;;;;;5030146;28;20068;-86
2021/03/24 19:11:31;;;;;;;25.35;11.95;;;9.50;98.40;;;;;;5030145;28;20494;-82
2021/03/24 19:13:57;;;;;;;20.67;11.02;;;9.50;99.10;;;;;;5024834;28;20055;-83
2021/03/24 19:16:35;;;;;;;21.65;10.75;;;9.40;99.90;;;;;;5023339;28;20025;-86
2021/03/24 19:19:01;;;;;;;23.27;11.75;;;9.30;99.90;;;;;;5029315;28;20025;-83
2021/03/24 19:21:32;;;;;;;23.90;12.68;;;9.30;99.90;;;;;;5032241;28;20557;-84
2021/03/24 19:24:32;;;;;;;25.98;12.60;;;9.20;99.90;;;;;;5030659;28;20046;-82
2021/03/24 19:27:09;;;;;;;27.10;14.05;;;9.20;99.90;;;;;;5030223;28;20029;-86
2021/03/24 19:29:40;;;;;;;23.08;12.38;;;9.10;99.90;;;;;;5025060;28;20564;-85
2021/03/24 19:32:27;;;;;;;26.95;13.23;;;9.10;99.90;;;;;;5028499;28;20032;-82
2021/03/24 19:35:46;;;;;;;22.88;12.77;;;9.00;99.90;;;;;;5028542;28;20036;-83
2021/03/24 19:38:27;;;;;;;21.75;12.80;;;9.00;99.90;;;;;;4986377;28;20113;-83
2021/03/24 19:41:07;;;;;;;24.45;13.45;;;8.90;99.90;;;;;;5026352;28;20048;-83